Time;durP1;ratioP1;P1;durP2;ratioP2;P2;SDS_P1;SDS_P2;PMS_P1;PMS_P2;Temp;Humidity;BMP_temperature;BMP_pressure;BME280_temperature;BME280_humidity;BME280_pressure;Samples;Min_cycle;Max_cycle;Signal;HPM_P1;HPM_P2
2022/11/03 00:01:36;;;;;;;11.70;2.75;;;;;;;;;;1833082;78;26292;-83
2022/11/03 00:04:07;;;;;;;9.47;2.77;;;;;;;;;;1833459;78;26232;-83
2022/11/03 00:06:36;;;;;;;12.10;2.80;;;;;;;;;;1833179;78;26685;-83
2022/11/03 00:09:05;;;;;;;11.35;2.70;;;;;;;;;;1833019;78;26318;-84
2022/11/03 00:11:33;;;;;;;;;;;;;;;;;;1832953;78;26290;-84
2022/11/03 00:14:02;;;;;;;11.57;2.70;;;;;;;;;;1824899;77;26372;-87
2022/11/03 00:16:31;;;;;;;9.83;3.00;;;;;;;;;;1833777;78;26310;-86
2022/11/03 00:19:01;;;;;;;15.83;3.20;;;;;;;;;;1833128;78;26243;-84
2022/11/03 00:21:30;;;;;;;13.30;3.20;;;;;;;;;;1833041;78;26217;-84
2022/11/03 00:24:01;;;;;;;11.30;3.17;;;;;;;;;;1832984;78;26380;-85
2022/11/03 00:26:30;;;;;;;15.63;3.40;;;;;;;;;;1833008;78;26220;-85
2022/11/03 00:29:01;;;;;;;13.77;3.50;;;;;;;;;;1832945;78;26224;-84
2022/11/03 00:31:30;;;;;;;12.73;3.70;;;;;;;;;;1833392;78;26669;-86
2022/11/03 00:34:00;;;;;;;17.77;3.60;;;;;;;;;;1833163;78;26212;-85
2022/11/03 00:36:29;;;;;;;20.47;3.53;;;;;;;;;;1833053;78;26713;-86
2022/11/03 00:38:59;;;;;;;12.90;3.20;;;;;;;;;;1833163;78;26228;-87
2022/11/03 00:41:28;;;;;;;19.20;4.07;;;;;;;;;;1833315;78;26345;-86
2022/11/03 00:43:57;;;;;;;15.75;4.15;;;;;;;;;;1833333;78;26586;-88
2022/11/03 00:46:29;;;;;;;19.90;4.70;;;;;;;;;;1833663;78;26681;-86
2022/11/03 00:48:59;;;;;;;18.73;4.47;;;;;;;;;;1833514;78;26224;-86
2022/11/03 00:51:29;;;;;;;22.50;4.57;;;;;;;;;;1834209;78;26208;-85
2022/11/03 00:53:59;;;;;;;20.03;3.97;;;;;;;;;;1832993;78;26713;-85
2022/11/03 00:56:29;;;;;;;17.97;4.13;;;;;;;;;;1832813;78;26236;-86
2022/11/03 00:58:59;;;;;;;17.63;3.43;;;;;;;;;;1833735;78;26224;-85
2022/11/03 01:01:29;;;;;;;16.27;3.57;;;;;;;;;;1833675;78;26220;-87
2022/11/03 01:06:53;;;;;;;13.80;4.27;;;;;;;;;;1834020;78;26227;-87
2022/11/03 01:09:22;;;;;;;13.73;3.33;;;;;;;;;;1834937;78;26204;-86
2022/11/03 01:11:57;;;;;;;18.83;3.83;;;;;;;;;;1836876;78;26248;-87
2022/11/03 01:14:28;;;;;;;19.73;3.60;;;;;;;;;;1837952;76;26271;-86
2022/11/03 01:16:57;;;;;;;17.80;3.65;;;;;;;;;;1836064;78;26274;-85
2022/11/03 01:19:25;;;;;;;13.43;2.93;;;;;;;;;;1834469;78;26295;-85
2022/11/03 01:21:58;;;;;;;15.53;3.97;;;;;;;;;;1835146;78;26684;-84
2022/11/03 01:24:27;;;;;;;15.77;3.23;;;;;;;;;;1834745;78;26244;-87
2022/11/03 01:26:57;;;;;;;15.73;3.43;;;;;;;;;;1835018;78;26228;-86
2022/11/03 01:29:27;;;;;;;14.17;3.13;;;;;;;;;;1834965;78;26212;-84
2022/11/03 01:31:56;;;;;;;14.43;3.23;;;;;;;;;;1833733;78;26560;-85
2022/11/03 01:34:25;;;;;;;15.57;3.33;;;;;;;;;;1810001;78;27247;-85
2022/11/03 01:36:54;;;;;;;17.07;3.43;;;;;;;;;;1833643;78;26236;-85
2022/11/03 01:39:23;;;;;;;20.27;3.97;;;;;;;;;;1833245;78;26216;-86
2022/11/03 01:41:54;;;;;;;13.90;3.00;;;;;;;;;;1842102;78;26322;-86
2022/11/03 01:44:37;;;;;;;14.23;3.53;;;;;;;;;;1833281;78;26232;-86
2022/11/03 01:47:25;;;;;;;16.63;3.50;;;;;;;;;;1833105;78;26690;-86
2022/11/03 01:49:55;;;;;;;12.73;3.03;;;;;;;;;;1833184;78;26279;-86
2022/11/03 01:52:26;;;;;;;13.00;3.30;;;;;;;;;;1832830;78;26224;-86
2022/11/03 01:54:56;;;;;;;13.60;3.90;;;;;;;;;;1833041;78;26228;-84
2022/11/03 01:57:27;;;;;;;14.07;3.50;;;;;;;;;;1832794;78;27339;-82
2022/11/03 01:59:59;;;;;;;12.43;3.17;;;;;;;;;;1833088;78;26313;-85
2022/11/03 02:02:28;;;;;;;13.10;3.20;;;;;;;;;;1832898;78;26220;-83
2022/11/03 02:04:59;;;;;;;16.13;3.10;;;;;;;;;;1833064;78;26240;-84
2022/11/03 02:07:30;;;;;;;11.80;3.33;;;;;;;;;;1832967;78;26223;-85
2022/11/03 02:10:00;;;;;;;16.27;3.33;;;;;;;;;;1832966;78;26227;-86
2022/11/03 02:12:30;;;;;;;11.83;3.10;;;;;;;;;;1833214;78;26348;-84
2022/11/03 02:15:04;;;;;;;11.27;2.90;;;;;;;;;;1832897;76;26716;-84
2022/11/03 02:17:33;;;;;;;10.73;2.90;;;;;;;;;;1833399;78;26293;-87
2022/11/03 02:20:03;;;;;;;15.17;3.67;;;;;;;;;;1833678;78;26240;-85
2022/11/03 02:22:51;;;;;;;13.10;3.23;;;;;;;;;;1834395;78;26233;-85
2022/11/03 02:25:30;;;;;;;14.20;3.40;;;;;;;;;;1833204;78;26247;-86
2022/11/03 02:27:59;;;;;;;14.50;3.10;;;;;;;;;;1833524;78;26232;-87
2022/11/03 02:30:29;;;;;;;13.03;3.00;;;;;;;;;;1833561;78;26236;-87
2022/11/03 02:33:01;;;;;;;11.80;3.00;;;;;;;;;;1866917;76;26236;-86
2022/11/03 02:35:31;;;;;;;13.80;3.35;;;;;;;;;;1833289;78;26251;-86
2022/11/03 02:38:02;;;;;;;13.03;3.07;;;;;;;;;;1867060;76;26553;-87
2022/11/03 02:40:33;;;;;;;16.60;3.67;;;;;;;;;;1804519;78;27291;-87
2022/11/03 02:43:02;;;;;;;14.20;3.30;;;;;;;;;;1833395;78;27438;-87
2022/11/03 02:45:32;;;;;;;11.23;2.90;;;;;;;;;;1833511;78;26285;-86
2022/11/03 02:48:03;;;;;;;16.43;3.77;;;;;;;;;;1833338;78;26302;-86
2022/11/03 02:50:32;;;;;;;14.53;3.77;;;;;;;;;;1833610;78;26232;-85
2022/11/03 02:53:01;;;;;;;12.57;3.10;;;;;;;;;;1833379;78;26240;-85
2022/11/03 02:55:34;;;;;;;14.97;3.20;;;;;;;;;;1803948;78;26252;-85
2022/11/03 02:58:07;;;;;;;18.20;3.73;;;;;;;;;;1833087;78;26259;-85
2022/11/03 03:00:37;;;;;;;13.07;3.20;;;;;;;;;;1833308;77;26310;-85
2022/11/03 03:03:07;;;;;;;11.47;3.00;;;;;;;;;;1833370;78;26248;-85
2022/11/03 03:05:38;;;;;;;10.83;2.87;;;;;;;;;;1833122;78;26216;-85
2022/11/03 03:08:08;;;;;;;15.77;3.80;;;;;;;;;;1805956;78;26181;-85
2022/11/03 03:10:39;;;;;;;11.80;2.97;;;;;;;;;;1833105;78;26244;-84
2022/11/03 03:13:09;;;;;;;13.57;3.13;;;;;;;;;;1833176;78;26728;-85
2022/11/03 03:15:39;;;;;;;10.20;2.70;;;;;;;;;;1832860;78;26292;-85
2022/11/03 03:18:11;;;;;;;14.90;3.33;;;;;;;;;;1832964;78;26782;-84
2022/11/03 03:20:42;;;;;;;15.03;3.40;;;;;;;;;;1833188;78;26285;-84
2022/11/03 03:23:14;;;;;;;11.33;2.97;;;;;;;;;;1833617;78;26578;-85
2022/11/03 03:25:45;;;;;;;12.67;2.93;;;;;;;;;;1833330;78;26235;-85
2022/11/03 03:28:15;;;;;;;13.03;3.63;;;;;;;;;;1833326;78;26621;-85
2022/11/03 03:30:45;;;;;;;14.33;3.30;;;;;;;;;;1833269;78;26978;-85
2022/11/03 03:33:15;;;;;;;16.43;3.50;;;;;;;;;;1833583;78;26314;-85
2022/11/03 03:35:46;;;;;;;10.40;2.97;;;;;;;;;;1833205;78;26232;-85
2022/11/03 03:38:16;;;;;;;12.70;3.23;;;;;;;;;;1833349;78;26200;-85
2022/11/03 03:40:48;;;;;;;16.77;4.20;;;;;;;;;;1833404;78;26684;-85
2022/11/03 03:43:19;;;;;;;17.67;3.67;;;;;;;;;;1804385;78;26290;-85
2022/11/03 03:45:51;;;;;;;10.33;2.90;;;;;;;;;;1833355;78;26231;-85
2022/11/03 03:48:20;;;;;;;10.03;2.87;;;;;;;;;;1833617;78;26326;-86
2022/11/03 03:50:50;;;;;;;12.47;3.30;;;;;;;;;;1833997;78;26843;-86
2022/11/03 03:53:19;;;;;;;16.27;3.37;;;;;;;;;;1805164;78;26244;-87
2022/11/03 03:55:50;;;;;;;10.77;2.83;;;;;;;;;;1834898;78;26228;-86
2022/11/03 03:58:18;;;;;;;12.50;3.53;;;;;;;;;;1812160;78;26224;-87
2022/11/03 04:00:48;;;;;;;12.80;3.27;;;;;;;;;;1837590;78;26245;-86
2022/11/03 04:03:17;;;;;;;9.13;2.80;;;;;;;;;;1845792;78;26342;-85
2022/11/03 04:05:47;;;;;;;10.23;3.10;;;;;;;;;;1844405;78;26260;-86
2022/11/03 04:08:16;;;;;;;13.80;3.00;;;;;;;;;;1826878;78;26283;-85
2022/11/03 04:24:44;;;;;;;12.73;2.90;;;;;;;;;;1833907;78;26322;-84
2022/11/03 04:27:29;;;;;;;9.57;3.00;;;;;;;;;;1833106;78;26224;-84
2022/11/03 04:30:00;;;;;;;13.53;3.07;;;;;;;;;;1832775;78;26560;-83
2022/11/03 04:32:29;;;;;;;7.80;2.77;;;;;;;;;;1833693;78;26252;-84
2022/11/03 04:34:59;;;;;;;11.60;3.13;;;;;;;;;;1809377;78;26338;-83
2022/11/03 04:37:29;;;;;;;8.67;2.73;;;;;;;;;;1833148;78;26287;-84
2022/11/03 04:40:00;;;;;;;8.07;2.87;;;;;;;;;;1833637;78;26823;-85
2022/11/03 04:42:32;;;;;;;8.63;2.57;;;;;;;;;;1833222;78;26737;-85
2022/11/03 04:45:02;;;;;;;8.93;2.30;;;;;;;;;;1833971;78;26752;-85
2022/11/03 04:47:32;;;;;;;14.80;2.93;;;;;;;;;;1832760;78;26305;-85
2022/11/03 04:50:01;;;;;;;8.33;3.10;;;;;;;;;;1833088;78;26827;-85
2022/11/03 04:52:30;;;;;;;8.87;2.77;;;;;;;;;;1833317;78;26173;-85
2022/11/03 04:55:10;;;;;;;10.93;2.70;;;;;;;;;;1833756;78;26169;-85
2022/11/03 04:57:39;;;;;;;7.53;2.33;;;;;;;;;;1833316;78;26224;-84
2022/11/03 05:00:12;;;;;;;6.60;2.40;;;;;;;;;;1801353;77;611083;-82
2022/11/03 05:02:41;;;;;;;9.07;2.43;;;;;;;;;;1752089;82;26303;-84
2022/11/03 05:05:15;;;;;;;7.65;2.65;;;;;;;;;;1752035;82;26358;-85
2022/11/03 05:07:47;;;;;;;9.90;2.60;;;;;;;;;;1761702;81;26326;-84
2022/11/03 05:10:19;;;;;;;8.55;2.85;;;;;;;;;;1730502;83;26310;-84
2022/11/03 05:12:48;;;;;;;10.77;2.70;;;;;;;;;;1753508;82;26322;-84
2022/11/03 05:15:29;;;;;;;10.57;2.67;;;;;;;;;;1763066;81;26287;-83
2022/11/03 05:17:59;;;;;;;7.10;2.70;;;;;;;;;;1732274;81;26323;-83
2022/11/03 05:20:38;;;;;;;8.67;2.80;;;;;;;;;;1752251;82;27064;-83
2022/11/03 05:23:11;;;;;;;7.67;2.60;;;;;;;;;;1751575;82;26331;-84
2022/11/03 05:25:43;;;;;;;10.45;2.75;;;;;;;;;;1762986;81;26369;-83
2022/11/03 05:28:17;;;;;;;10.13;2.70;;;;;;;;;;1732361;83;26372;-83
2022/11/03 05:30:45;;;;;;;8.93;2.43;;;;;;;;;;1762872;81;26268;-83
2022/11/03 05:33:22;;;;;;;9.77;2.93;;;;;;;;;;1753240;82;26275;-83
2022/11/03 05:35:51;;;;;;;9.57;2.70;;;;;;;;;;1761138;81;26323;-82
2022/11/03 05:38:22;;;;;;;6.77;2.17;;;;;;;;;;1761421;81;24272;-83
2022/11/03 05:40:52;;;;;;;7.63;2.47;;;;;;;;;;1730564;83;26416;-83
2022/11/03 05:43:21;;;;;;;7.57;2.40;;;;;;;;;;1753487;82;26269;-84
2022/11/03 05:45:50;;;;;;;8.77;3.27;;;;;;;;;;1762979;81;26256;-84
2022/11/03 05:48:20;;;;;;;12.37;2.83;;;;;;;;;;1730753;83;26328;-84
2022/11/03 05:50:50;;;;;;;9.87;2.70;;;;;;;;;;1730634;81;26346;-84
2022/11/03 05:53:29;;;;;;;11.37;2.60;;;;;;;;;;1703295;83;26520;-84
2022/11/03 05:55:59;;;;;;;11.50;2.60;;;;;;;;;;1730121;83;26390;-83
2022/11/03 05:58:29;;;;;;;9.10;2.50;;;;;;;;;;1753092;81;26307;-84
2022/11/03 06:00:59;;;;;;;8.83;2.47;;;;;;;;;;1761702;81;26776;-83
2022/11/03 06:03:28;;;;;;;9.33;2.27;;;;;;;;;;1730489;83;26390;-84
2022/11/03 06:05:58;;;;;;;8.33;2.33;;;;;;;;;;1751469;82;26761;-84
2022/11/03 06:08:28;;;;;;;9.40;2.60;;;;;;;;;;1751701;82;26900;-84
2022/11/03 06:10:58;;;;;;;6.37;2.60;;;;;;;;;;1761311;81;26291;-84
2022/11/03 06:13:29;;;;;;;7.67;2.43;;;;;;;;;;1732290;83;26284;-85
2022/11/03 06:15:59;;;;;;;7.47;2.40;;;;;;;;;;1752620;82;27053;-84
2022/11/03 06:18:31;;;;;;;6.70;2.13;;;;;;;;;;1762509;80;26402;-84
2022/11/03 06:21:02;;;;;;;4.57;2.00;;;;;;;;;;1732327;83;26722;-84
2022/11/03 06:23:32;;;;;;;10.67;2.90;;;;;;;;;;1753441;81;26275;-84
2022/11/03 06:26:02;;;;;;;8.33;2.60;;;;;;;;;;1761160;81;26858;-84
2022/11/03 06:28:35;;;;;;;11.03;2.50;;;;;;;;;;1731142;83;26312;-84
2022/11/03 06:31:05;;;;;;;6.03;2.57;;;;;;;;;;1752451;82;26311;-85
2022/11/03 06:33:36;;;;;;;7.73;2.53;;;;;;;;;;1751308;82;26292;-84
2022/11/03 06:36:10;;;;;;;6.90;2.30;;;;;;;;;;1762752;81;26314;-84
2022/11/03 06:38:39;;;;;;;7.70;2.03;;;;;;;;;;1730512;83;26306;-84
2022/11/03 06:41:11;;;;;;;5.27;2.13;;;;;;;;;;1751599;81;26323;-81
2022/11/03 06:43:42;;;;;;;9.33;2.50;;;;;;;;;;1759806;81;26402;-82
2022/11/03 06:46:15;;;;;;;8.80;2.40;;;;;;;;;;1762126;80;26325;-83
2022/11/03 06:48:45;;;;;;;8.93;2.30;;;;;;;;;;1762348;80;26246;-83
2022/11/03 06:51:16;;;;;;;6.07;1.63;;;;;;;;;;1761867;80;24319;-83
2022/11/03 06:53:44;;;;;;;6.77;2.13;;;;;;;;;;1760854;80;26291;-83
2022/11/03 06:56:16;;;;;;;8.70;2.27;;;;;;;;;;1760317;80;26310;-84
2022/11/03 06:58:47;;;;;;;7.83;2.30;;;;;;;;;;1761549;80;27431;-84
2022/11/03 07:01:18;;;;;;;8.57;2.50;;;;;;;;;;1750396;82;26301;-77
2022/11/03 07:03:46;;;;;;;5.90;2.23;;;;;;;;;;1759671;80;26340;-77
2022/11/03 07:06:18;;;;;;;6.33;2.60;;;;;;;;;;1729450;81;26275;-76
2022/11/03 07:08:48;;;;;;;10.00;2.60;;;;;;;;;;1750064;82;27552;-76
2022/11/03 07:11:17;;;;;;;6.70;2.25;;;;;;;;;;1759698;80;26285;-76
2022/11/03 07:13:46;;;;;;;9.03;2.43;;;;;;;;;;1750003;82;26309;-76
2022/11/03 07:16:16;;;;;;;9.53;2.63;;;;;;;;;;1759824;80;26563;-77
2022/11/03 07:18:46;;;;;;;6.63;2.33;;;;;;;;;;1759743;80;26388;-76
2022/11/03 07:21:25;;;;;;;11.60;2.53;;;;;;;;;;1750238;82;26658;-77
2022/11/03 07:23:55;;;;;;;6.23;2.43;;;;;;;;;;1759976;80;26861;-76
2022/11/03 07:26:24;;;;;;;7.00;2.50;;;;;;;;;;1759610;80;26581;-75
2022/11/03 07:28:53;;;;;;;6.87;2.43;;;;;;;;;;1759495;80;26572;-77
2022/11/03 07:31:24;;;;;;;7.30;2.40;;;;;;;;;;1729558;81;26870;-77
2022/11/03 07:33:57;;;;;;;10.25;2.65;;;;;;;;;;1759823;80;26763;-78
2022/11/03 07:36:28;;;;;;;9.30;2.50;;;;;;;;;;1761613;80;26822;-77
2022/11/03 07:38:57;;;;;;;4.17;2.10;;;;;;;;;;1760404;80;26368;-77
2022/11/03 07:41:26;;;;;;;5.17;2.07;;;;;;;;;;1749753;82;26332;-77
2022/11/03 07:43:57;;;;;;;5.97;1.90;;;;;;;;;;1759921;80;24225;-77
2022/11/03 07:46:27;;;;;;;7.97;2.00;;;;;;;;;;1760112;80;26348;-76
2022/11/03 07:49:00;;;;;;;4.97;1.70;;;;;;;;;;1750329;82;26929;-77
2022/11/03 07:51:31;;;;;;;4.10;1.90;;;;;;;;;;1724783;82;26348;-75
2022/11/03 07:54:03;;;;;;;7.37;2.40;;;;;;;;;;1751759;82;26551;-77
2022/11/03 07:56:34;;;;;;;5.07;1.80;;;;;;;;;;1759569;80;26759;-76
2022/11/03 07:59:06;;;;;;;3.45;1.75;;;;;;;;;;1760019;80;26283;-77
2022/11/03 08:01:36;;;;;;;5.37;2.40;;;;;;;;;;1749230;80;26300;-76
2022/11/03 08:04:06;;;;;;;5.07;2.10;;;;;;;;;;1750124;82;26932;-76
2022/11/03 08:06:35;;;;;;;6.60;2.40;;;;;;;;;;1750227;82;26300;-77
2022/11/03 08:09:05;;;;;;;6.10;2.10;;;;;;;;;;1700221;82;26610;-77
2022/11/03 08:11:35;;;;;;;6.40;2.37;;;;;;;;;;1759637;80;26275;-76
2022/11/03 08:14:04;;;;;;;5.13;2.57;;;;;;;;;;1760099;80;26778;-77
2022/11/03 08:16:32;;;;;;;6.83;2.60;;;;;;;;;;1759645;80;26766;-77
2022/11/03 08:19:01;;;;;;;7.70;2.90;;;;;;;;;;1722195;81;26364;-77
2022/11/03 08:21:30;;;;;;;7.30;2.60;;;;;;;;;;1759743;80;26373;-77
2022/11/03 08:23:59;;;;;;;6.33;2.47;;;;;;;;;;1729855;81;24229;-77
2022/11/03 08:26:29;;;;;;;7.00;2.90;;;;;;;;;;1750064;82;26888;-77
2022/11/03 08:28:57;;;;;;;6.83;2.40;;;;;;;;;;1760038;80;26290;-77
2022/11/03 08:31:26;;;;;;;5.57;2.90;;;;;;;;;;1722221;82;27426;-76
2022/11/03 08:33:54;;;;;;;7.05;2.90;;;;;;;;;;1722416;82;26305;-77
2022/11/03 08:36:23;;;;;;;6.33;2.63;;;;;;;;;;1759539;80;26391;-77
2022/11/03 08:38:52;;;;;;;6.83;3.00;;;;;;;;;;1760268;80;27425;-76
2022/11/03 08:41:21;;;;;;;7.07;2.97;;;;;;;;;;1759458;80;26325;-78
2022/11/03 08:43:50;;;;;;;5.67;2.67;;;;;;;;;;1750471;82;26360;-86
2022/11/03 08:46:20;;;;;;;5.53;3.20;;;;;;;;;;1729474;81;26281;-85
2022/11/03 08:48:50;;;;;;;7.63;3.40;;;;;;;;;;1729782;81;26344;-84
2022/11/03 08:51:20;;;;;;;8.00;3.43;;;;;;;;;;1759898;80;27494;-85
2022/11/03 08:53:51;;;;;;;6.47;3.40;;;;;;;;;;1760491;80;26328;-88
2022/11/03 08:56:19;;;;;;;8.60;3.60;;;;;;;;;;1750686;82;26316;-88
2022/11/03 08:58:48;;;;;;;7.30;3.03;;;;;;;;;;1760584;80;26417;-88
2022/11/03 09:01:18;;;;;;;5.73;3.07;;;;;;;;;;1750518;82;26309;-90
2022/11/03 09:03:47;;;;;;;5.50;2.93;;;;;;;;;;1723960;82;26402;-89
2022/11/03 09:06:17;;;;;;;6.77;2.90;;;;;;;;;;1760215;80;26294;-87
2022/11/03 09:08:46;;;;;;;5.30;2.33;;;;;;;;;;1750804;82;26798;-87
2022/11/03 09:11:15;;;;;;;5.43;2.10;;;;;;;;;;1760345;80;26341;-87
2022/11/03 09:13:45;;;;;;;3.80;2.13;;;;;;;;;;1729422;81;26382;-86
2022/11/03 09:16:15;;;;;;;5.93;2.10;;;;;;;;;;1729606;81;26281;-88
2022/11/03 09:18:45;;;;;;;8.50;2.33;;;;;;;;;;1760694;80;26768;-88
2022/11/03 09:21:14;;;;;;;4.37;1.90;;;;;;;;;;1760581;80;26270;-87
2022/11/03 09:23:42;;;;;;;3.95;2.25;;;;;;;;;;1760333;80;26282;-88
2022/11/03 09:26:11;;;;;;;4.77;2.10;;;;;;;;;;1751350;82;26375;-87
2022/11/03 09:28:42;;;;;;;5.87;2.03;;;;;;;;;;1731742;81;26291;-87
2022/11/03 09:31:11;;;;;;;7.43;2.20;;;;;;;;;;1752488;82;26297;-87
2022/11/03 09:33:41;;;;;;;4.57;1.70;;;;;;;;;;1763838;80;26404;-87
2022/11/03 09:36:09;;;;;;;6.93;2.00;;;;;;;;;;1762457;80;26770;-86
2022/11/03 09:38:40;;;;;;;4.83;2.00;;;;;;;;;;1761772;80;26290;-86
2022/11/03 09:41:16;;;;;;;4.20;2.17;;;;;;;;;;1761642;80;26309;-88
2022/11/03 09:43:42;;;;;;;2.80;1.70;;;;;;;;;;1733035;82;26399;-87
2022/11/03 09:46:10;;;;;;;6.27;2.10;;;;;;;;;;1766494;78;26858;-87
2022/11/03 09:48:40;;;;;;;6.13;2.40;;;;;;;;;;1766483;78;26343;-86
2022/11/03 09:51:10;;;;;;;3.40;2.03;;;;;;;;;;1760821;81;26321;-85
2022/11/03 09:53:41;;;;;;;5.30;1.77;;;;;;;;;;1750301;82;26447;-87
2022/11/03 09:56:11;;;;;;;4.50;2.53;;;;;;;;;;1761140;81;26287;-85
2022/11/03 09:58:40;;;;;;;5.07;1.97;;;;;;;;;;1730602;81;27431;-85
2022/11/03 10:01:10;;;;;;;4.17;1.67;;;;;;;;;;1759846;81;26820;-85
2022/11/03 10:03:41;;;;;;;4.57;1.63;;;;;;;;;;1760542;80;26297;-86
2022/11/03 10:06:11;;;;;;;3.30;1.47;;;;;;;;;;1750498;82;26382;-86
2022/11/03 10:08:41;;;;;;;5.53;1.87;;;;;;;;;;1760316;80;26270;-85
2022/11/03 10:11:10;;;;;;;3.13;1.27;;;;;;;;;;1750679;82;26309;-87
2022/11/03 10:13:40;;;;;;;3.50;1.77;;;;;;;;;;1751030;82;26848;-85
2022/11/03 10:16:11;;;;;;;2.33;1.40;;;;;;;;;;1750613;82;26398;-87
2022/11/03 10:18:43;;;;;;;4.10;1.80;;;;;;;;;;1751173;80;26302;-83
2022/11/03 10:21:14;;;;;;;3.10;1.30;;;;;;;;;;1760317;80;26306;-87
2022/11/03 10:23:44;;;;;;;3.90;1.50;;;;;;;;;;1750822;82;26309;-87
2022/11/03 10:26:17;;;;;;;2.70;1.60;;;;;;;;;;1760278;80;26352;-87
2022/11/03 10:28:57;;;;;;;3.33;1.53;;;;;;;;;;1751322;82;26308;-88
2022/11/03 10:31:33;;;;;;;3.70;1.40;;;;;;;;;;1761665;80;26392;-84
2022/11/03 10:34:02;;;;;;;2.87;1.10;;;;;;;;;;1761793;80;26279;-85
2022/11/03 10:36:32;;;;;;;2.43;1.40;;;;;;;;;;1708893;81;26286;-83
2022/11/03 10:39:03;;;;;;;2.33;1.50;;;;;;;;;;1761418;80;26275;-84
2022/11/03 10:41:31;;;;;;;2.70;1.30;;;;;;;;;;1727572;81;26850;-87
2022/11/03 10:44:02;;;;;;;1.53;1.07;;;;;;;;;;1752088;82;26676;-86
2022/11/03 10:46:33;;;;;;;2.70;1.13;;;;;;;;;;1761697;80;26399;-86
2022/11/03 10:49:04;;;;;;;2.03;1.27;;;;;;;;;;1751904;82;26285;-86
2022/11/03 10:51:35;;;;;;;2.53;1.30;;;;;;;;;;1761853;80;26289;-86
2022/11/03 10:54:05;;;;;;;3.10;1.43;;;;;;;;;;1761815;80;26529;-87
2022/11/03 10:56:35;;;;;;;3.37;1.40;;;;;;;;;;1731765;81;26321;-85
2022/11/03 10:59:05;;;;;;;2.63;1.20;;;;;;;;;;1761732;80;26341;-85
2022/11/03 11:01:34;;;;;;;2.10;1.40;;;;;;;;;;1761372;80;26540;-85
2022/11/03 11:04:04;;;;;;;2.67;1.50;;;;;;;;;;1761337;80;26758;-83
2022/11/03 11:06:33;;;;;;;5.37;1.80;;;;;;;;;;1751214;82;26304;-83
2022/11/03 11:09:02;;;;;;;2.27;1.63;;;;;;;;;;1750999;82;26316;-82
2022/11/03 11:11:34;;;;;;;3.00;1.60;;;;;;;;;;1723159;82;26308;-83
2022/11/03 11:14:22;;;;;;;2.53;1.50;;;;;;;;;;1750984;82;26300;-82
2022/11/03 11:16:51;;;;;;;2.03;1.47;;;;;;;;;;1760128;80;26743;-84
2022/11/03 11:19:21;;;;;;;2.83;1.53;;;;;;;;;;1760469;80;26353;-83
2022/11/03 11:22:15;;;;;;;2.53;1.40;;;;;;;;;;1760184;80;26720;-84
2022/11/03 11:25:06;;;;;;;5.17;1.50;;;;;;;;;;1749515;82;26755;-83
2022/11/03 11:28:12;;;;;;;3.37;1.80;;;;;;;;;;1751006;82;26832;-83
2022/11/03 11:31:07;;;;;;;6.03;2.53;;;;;;;;;;1760539;80;26282;-83
2022/11/03 11:33:35;;;;;;;3.03;1.90;;;;;;;;;;1760589;80;26291;-84
2022/11/03 11:36:11;;;;;;;3.83;1.63;;;;;;;;;;1761218;80;26576;-82
2022/11/03 11:39:11;;;;;;;3.47;1.60;;;;;;;;;;1759220;80;26290;-81
2022/11/03 11:41:57;;;;;;;5.27;1.70;;;;;;;;;;1760651;80;26371;-84
2022/11/03 11:44:48;;;;;;;5.50;1.70;;;;;;;;;;1732882;82;26918;-82
2022/11/03 11:47:29;;;;;;;2.43;1.60;;;;;;;;;;1762161;81;26303;-83
2022/11/03 11:50:22;;;;;;;3.13;1.90;;;;;;;;;;1761718;81;26303;-82
2022/11/03 11:52:56;;;;;;;2.37;1.57;;;;;;;;;;1761688;81;26366;-82
2022/11/03 11:55:30;;;;;;;4.13;1.87;;;;;;;;;;1761601;81;26416;-82
2022/11/03 11:57:59;;;;;;;3.53;1.60;;;;;;;;;;1732738;83;26710;-82
2022/11/03 12:00:31;;;;;;;1.80;1.40;;;;;;;;;;1732573;83;26779;-83
2022/11/03 12:03:04;;;;;;;3.50;1.60;;;;;;;;;;1761350;80;26299;-83
2022/11/03 12:05:34;;;;;;;2.50;2.00;;;;;;;;;;1730785;83;26300;-83
2022/11/03 12:08:06;;;;;;;3.33;1.60;;;;;;;;;;1751868;82;26342;-83
2022/11/03 12:10:35;;;;;;;4.57;1.77;;;;;;;;;;1758082;80;26290;-83
2022/11/03 12:13:09;;;;;;;3.83;1.97;;;;;;;;;;1750815;82;26729;-81
2022/11/03 12:15:55;;;;;;;2.65;1.70;;;;;;;;;;1756228;81;27533;-82
2022/11/03 12:18:31;;;;;;;3.95;1.60;;;;;;;;;;1760480;80;26360;-83
2022/11/03 12:21:00;;;;;;;3.13;1.57;;;;;;;;;;1751022;80;26394;-82
2022/11/03 12:23:41;;;;;;;3.93;1.73;;;;;;;;;;1732602;83;26291;-83
2022/11/03 12:26:17;;;;;;;4.20;2.17;;;;;;;;;;1733126;83;26672;-82
2022/11/03 12:28:47;;;;;;;3.53;1.83;;;;;;;;;;1730985;83;26314;-84
2022/11/03 12:31:17;;;;;;;3.07;1.60;;;;;;;;;;1752206;81;26377;-82
2022/11/03 12:33:47;;;;;;;3.37;2.87;;;;;;;;;;1761861;81;26700;-83
2022/11/03 12:36:16;;;;;;;3.30;2.57;;;;;;;;;;1731227;83;26319;-83
2022/11/03 12:38:45;;;;;;;2.30;1.90;;;;;;;;;;1751598;81;26313;-84
2022/11/03 12:41:24;;;;;;;2.80;1.77;;;;;;;;;;1751540;82;26415;-82
2022/11/03 12:43:54;;;;;;;5.03;2.60;;;;;;;;;;1753067;82;26315;-84
2022/11/03 12:46:23;;;;;;;2.63;1.83;;;;;;;;;;1753389;82;26270;-83
2022/11/03 12:48:53;;;;;;;3.27;1.80;;;;;;;;;;1762946;81;26723;-83
2022/11/03 12:51:23;;;;;;;3.47;1.60;;;;;;;;;;1732082;83;26273;-84
2022/11/03 12:53:53;;;;;;;3.93;2.00;;;;;;;;;;1752892;81;27370;-83
2022/11/03 12:56:24;;;;;;;3.53;2.00;;;;;;;;;;1761152;81;26321;-82
2022/11/03 12:58:53;;;;;;;4.17;1.60;;;;;;;;;;1730204;83;26992;-83
2022/11/03 13:01:22;;;;;;;3.75;1.30;;;;;;;;;;1751333;82;26387;-83
2022/11/03 13:03:53;;;;;;;2.80;1.40;;;;;;;;;;1760821;81;26311;-84
2022/11/03 13:06:22;;;;;;;2.83;1.30;;;;;;;;;;1730069;83;26389;-83
2022/11/03 13:08:53;;;;;;;5.33;1.33;;;;;;;;;;1769798;80;26346;-76
2022/11/03 13:14:10;;;;;;;5.10;1.50;;;;;;;;;;1732209;83;26436;-78
2022/11/03 13:16:38;;;;;;;4.40;2.00;;;;;;;;;;1753243;82;26720;-77
2022/11/03 13:19:09;;;;;;;3.45;1.80;;;;;;;;;;1753157;82;26295;-77
2022/11/03 13:21:39;;;;;;;3.07;1.57;;;;;;;;;;1753338;80;26350;-76
2022/11/03 13:24:10;;;;;;;4.00;1.60;;;;;;;;;;1732359;81;26321;-77
2022/11/03 13:26:39;;;;;;;2.50;1.53;;;;;;;;;;1752084;82;26315;-77
2022/11/03 13:29:08;;;;;;;3.67;1.50;;;;;;;;;;1761525;80;26254;-77
2022/11/03 13:31:36;;;;;;;4.07;1.70;;;;;;;;;;1760757;80;26344;-78
2022/11/03 13:34:05;;;;;;;2.40;1.30;;;;;;;;;;1722455;82;26745;-78
2022/11/03 13:36:38;;;;;;;3.20;1.50;;;;;;;;;;1750060;82;26320;-77
2022/11/03 13:39:07;;;;;;;3.60;1.75;;;;;;;;;;1759851;80;26778;-77
2022/11/03 13:41:38;;;;;;;3.67;1.60;;;;;;;;;;1750351;82;26332;-90
2022/11/03 13:44:07;;;;;;;2.70;1.90;;;;;;;;;;1750575;82;26430;-78
2022/11/03 13:46:37;;;;;;;4.23;2.20;;;;;;;;;;1759909;80;26925;-77
2022/11/03 13:49:05;;;;;;;4.00;2.60;;;;;;;;;;1759797;80;26598;-77
2022/11/03 13:51:34;;;;;;;5.37;3.17;;;;;;;;;;1759742;80;26760;-75
2022/11/03 13:54:03;;;;;;;4.27;2.60;;;;;;;;;;1759908;80;26282;-72
2022/11/03 13:56:32;;;;;;;4.93;2.50;;;;;;;;;;1751573;82;26343;-72
2022/11/03 13:59:01;;;;;;;3.30;2.30;;;;;;;;;;1761726;80;26305;-74
2022/11/03 14:01:29;;;;;;;6.77;2.50;;;;;;;;;;1761541;80;26826;-72
2022/11/03 14:03:58;;;;;;;5.00;2.07;;;;;;;;;;1724321;82;26324;-72
2022/11/03 14:06:29;;;;;;;3.10;1.77;;;;;;;;;;1751857;82;26327;-72
2022/11/03 14:08:57;;;;;;;5.33;2.40;;;;;;;;;;1751844;82;27067;-72
2022/11/03 14:14:11;;;;;;;4.00;2.43;;;;;;;;;;1731417;81;26246;-72
2022/11/03 14:16:40;;;;;;;7.30;5.43;;;;;;;;;;1761534;80;26238;-72
2022/11/03 14:19:08;;;;;;;5.60;4.60;;;;;;;;;;1761433;80;26802;-72
2022/11/03 14:21:39;;;;;;;3.40;2.60;;;;;;;;;;1724377;82;26261;-72
2022/11/03 14:24:07;;;;;;;3.45;2.35;;;;;;;;;;1751786;82;26273;-73
2022/11/03 14:26:35;;;;;;;2.77;2.23;;;;;;;;;;1731761;81;26301;-72
2022/11/03 14:29:04;;;;;;;3.37;2.30;;;;;;;;;;1724396;82;26825;-72
2022/11/03 14:31:32;;;;;;;2.67;2.07;;;;;;;;;;1751909;82;26265;-72
2022/11/03 14:34:00;;;;;;;4.10;2.10;;;;;;;;;;1724408;82;26320;-72
2022/11/03 14:36:28;;;;;;;2.37;2.10;;;;;;;;;;1761651;80;26235;-71
2022/11/03 14:38:57;;;;;;;2.97;2.03;;;;;;;;;;1724381;82;26327;-72
2022/11/03 14:44:12;;;;;;;5.83;2.63;;;;;;;;;;1731200;81;26306;-72
2022/11/03 14:46:40;;;;;;;2.23;1.77;;;;;;;;;;1751933;82;26320;-72
2022/11/03 14:49:12;;;;;;;4.50;2.87;;;;;;;;;;1724281;82;27240;-72
2022/11/03 14:51:40;;;;;;;7.13;4.27;;;;;;;;;;1724906;82;26758;-72
2022/11/03 14:54:08;;;;;;;6.43;4.10;;;;;;;;;;1701175;82;27404;-72
2022/11/03 14:56:37;;;;;;;4.70;4.30;;;;;;;;;;1749812;82;26301;-71
2022/11/03 14:59:06;;;;;;;5.63;3.97;;;;;;;;;;1729312;81;27533;-71
2022/11/03 15:01:37;;;;;;;4.50;4.10;;;;;;;;;;1759843;80;26270;-72
2022/11/03 15:04:06;;;;;;;4.70;4.07;;;;;;;;;;1730404;81;26352;-72
2022/11/03 15:06:35;;;;;;;4.80;4.27;;;;;;;;;;1760096;80;26274;-72
2022/11/03 15:09:04;;;;;;;5.73;2.40;;;;;;;;;;1759909;80;26368;-72
2022/11/03 15:11:32;;;;;;;5.13;3.07;;;;;;;;;;1750391;82;26305;-72
2022/11/03 15:14:02;;;;;;;4.47;2.70;;;;;;;;;;1750241;82;26304;-72
2022/11/03 15:16:30;;;;;;;3.70;2.90;;;;;;;;;;1750098;82;26798;-72
2022/11/03 15:18:58;;;;;;;4.97;2.93;;;;;;;;;;1759748;80;26824;-73
2022/11/03 15:21:27;;;;;;;5.85;2.50;;;;;;;;;;1750265;80;26378;-72
2022/11/03 15:23:56;;;;;;;5.93;2.63;;;;;;;;;;1759938;80;26390;-72
2022/11/03 15:26:24;;;;;;;3.47;2.20;;;;;;;;;;1759812;80;26278;-72